Time;durP1;ratioP1;P1;durP2;ratioP2;P2;SDS_P1;SDS_P2;PMS_P1;PMS_P2;Temp;Humidity;BMP_temperature;BMP_pressure;BME280_temperature;BME280_humidity;BME280_pressure;Samples;Min_cycle;Max_cycle;Signal;HPM_P1;HPM_P2
2022/07/07 00:01:53;;;;;;;3.77;3.77;;;;;;;;;;5117059;28;20224;-73
2022/07/07 00:04:19;;;;;;;3.60;3.50;;;;;;;18.10;82.76;66094.06;5116934;28;20220;-73
2022/07/07 00:06:46;;;;;;;3.70;3.70;;;;;;;;;;5116353;28;20217;-73
2022/07/07 00:09:12;;;;;;;4.13;3.87;;;;;;;;;;5116214;28;20207;-72
2022/07/07 00:11:38;;;;;;;3.83;3.80;;;;;;;;;;5116842;28;20659;-73
2022/07/07 00:14:07;;;;;;;3.17;3.07;;;;;;;;;;5116798;28;20288;-73
2022/07/07 00:16:33;;;;;;;3.43;3.43;;;;;;;18.01;83.77;66087.22;5117035;28;20213;-73
2022/07/07 00:19:01;;;;;;;4.13;3.93;;;;;;;18.05;84.32;66091.09;5115785;28;20208;-73
2022/07/07 00:21:28;;;;;;;3.93;3.73;;;;;;;17.97;84.72;66082.19;5116673;28;20281;-73
2022/07/07 00:23:55;;;;;;;3.50;3.50;;;;;;;18.06;84.62;66090.16;5116746;28;20237;-73
2022/07/07 00:26:21;;;;;;;3.13;3.03;;;;;;;17.90;85.59;66072.31;5116569;28;20220;-73
2022/07/07 00:28:48;;;;;;;3.10;3.10;;;;;;;17.98;85.15;66088.56;5098261;28;20275;-73
2022/07/07 00:31:15;;;;;;;4.13;3.70;;;;;;;18.00;85.74;66093.97;5114887;28;20216;-73
2022/07/07 00:33:42;;;;;;;4.77;3.97;;;;;;;17.93;86.06;66070.41;5116379;28;20209;-73
2022/07/07 00:36:08;;;;;;;6.27;4.10;;;;;;;17.96;85.94;66073.19;5116701;28;20217;-73
2022/07/07 00:38:35;;;;;;;8.97;3.60;;;;;;;18.02;86.12;66087.78;5116261;28;20200;-73
2022/07/07 00:41:02;;;;;;;6.00;3.90;;;;;;;17.91;86.68;66076.03;5115055;28;20224;-72
2022/07/07 00:43:38;;;;;;;4.23;4.03;;;;;;;17.97;86.59;66084.81;5116223;28;20205;-73
2022/07/07 00:46:06;;;;;;;3.87;3.57;;;;;;;;;;5116531;28;20205;-73
2022/07/07 00:48:35;;;;;;;3.80;3.70;;;;;;;17.95;86.75;66077.34;5116409;28;20185;-73
2022/07/07 00:51:03;;;;;;;8.93;4.40;;;;;;;;;;5116123;28;20290;-73
2022/07/07 00:53:29;;;;;;;4.03;3.93;;;;;;;;;;5115020;28;20236;-72
2022/07/07 00:55:55;;;;;;;4.17;3.97;;;;;;;;;;5116321;28;20216;-73
2022/07/07 00:58:22;;;;;;;5.93;2.93;;;;;;;17.86;88.06;66073.09;5116199;28;20292;-73
2022/07/07 01:00:49;;;;;;;3.93;3.77;;;;;;;17.82;88.37;66066.00;5116525;28;20209;-73
2022/07/07 01:03:16;;;;;;;4.17;3.73;;;;;;;17.81;89.08;66062.28;5115824;28;20236;-72
2022/07/07 01:05:46;;;;;;;3.50;3.40;;;;;;;17.79;89.80;66060.03;5114950;28;20197;-72
2022/07/07 01:08:15;;;;;;;3.60;3.23;;;;;;;;;;5115812;28;20226;-73
2022/07/07 01:10:43;;;;;;;3.40;3.30;;;;;;;17.70;91.77;66042.09;5115155;28;20257;-72
2022/07/07 01:13:09;;;;;;;3.10;2.90;;;;;;;;;;5115099;28;20713;-73
2022/07/07 01:15:35;;;;;;;3.23;3.13;;;;;;;17.66;92.74;66048.16;5115941;28;20216;-73
2022/07/07 01:18:02;;;;;;;6.30;3.77;;;;;;;17.76;92.16;66059.31;5114637;28;20290;-72
2022/07/07 01:20:29;;;;;;;4.27;3.90;;;;;;;17.82;91.70;66063.94;5115544;28;20556;-72
2022/07/07 01:22:56;;;;;;;3.77;3.67;;;;;;;17.76;92.99;66056.69;5114897;28;20617;-72
2022/07/07 01:25:23;;;;;;;4.67;4.50;;;;;;;;;;5115734;28;20208;-72
2022/07/07 01:27:50;;;;;;;5.33;3.93;;;;;;;17.79;94.03;66065.84;5115428;28;20268;-72
2022/07/07 01:30:17;;;;;;;6.13;4.20;;;;;;;17.74;94.99;66057.09;5114582;28;20220;-72
2022/07/07 01:32:44;;;;;;;4.73;4.33;;;;;;;17.80;94.81;66064.34;5114772;28;20274;-72
2022/07/07 01:35:12;;;;;;;6.33;4.07;;;;;;;17.79;95.08;66063.22;5115527;28;20220;-72
2022/07/07 01:37:38;;;;;;;4.63;4.43;;;;;;;17.78;95.85;66061.53;5115116;28;20193;-72
2022/07/07 01:40:05;;;;;;;4.43;4.33;;;;;;;17.81;95.82;66065.44;5115156;28;20358;-72
2022/07/07 01:42:31;;;;;;;4.60;4.50;;;;;;;17.82;95.78;66058.13;5114562;28;20278;-73
2022/07/07 01:44:58;;;;;;;5.53;4.40;;;;;;;;;;5115042;28;20217;-73
2022/07/07 01:47:24;;;;;;;4.20;4.10;;;;;;;;;;5115023;28;20181;-73
2022/07/07 01:49:51;;;;;;;4.37;4.27;;;;;;;17.82;96.38;66066.00;5114949;28;20193;-72
2022/07/07 01:52:18;;;;;;;4.73;4.53;;;;;;;;;;5114270;28;20205;-72
2022/07/07 01:54:44;;;;;;;5.13;5.03;;;;;;;17.79;96.54;66060.59;5113471;28;20272;-72
2022/07/07 01:57:11;;;;;;;4.53;4.10;;;;;;;17.86;96.14;66071.03;5115069;28;20214;-72
2022/07/07 01:59:37;;;;;;;3.97;3.87;;;;;;;;;;5114695;28;20292;-72
2022/07/07 02:02:04;;;;;;;5.03;4.63;;;;;;;;;;5114646;28;20220;-71
2022/07/07 02:04:31;;;;;;;5.00;4.90;;;;;;;17.83;96.27;66065.06;5113737;28;20626;-72
2022/07/07 02:06:58;;;;;;;6.00;5.53;;;;;;;17.85;96.11;66067.28;5114620;28;20238;-72
2022/07/07 02:09:24;;;;;;;6.20;5.80;;;;;;;;;;5114575;28;20173;-72
2022/07/07 02:11:51;;;;;;;6.60;5.80;;;;;;;;;;5114542;28;20667;-72
2022/07/07 02:14:17;;;;;;;7.97;5.97;;;;;;;17.81;96.42;66065.44;5112810;28;20241;-72
2022/07/07 02:16:44;;;;;;;6.57;6.13;;;;;;;17.77;96.92;66060.44;5114469;28;20224;-72
2022/07/07 02:19:10;;;;;;;6.47;5.83;;;;;;;17.80;97.02;66063.78;5114339;28;20205;-72
2022/07/07 02:21:37;;;;;;;5.60;5.50;;;;;;;17.81;96.89;66073.34;5114658;28;20217;-71
2022/07/07 02:24:04;;;;;;;6.17;5.93;;;;;;;17.78;97.03;66059.47;5114238;28;20231;-72
2022/07/07 02:26:33;;;;;;;7.23;6.73;;;;;;;17.79;96.99;66060.59;5113370;28;20671;-73
2022/07/07 02:29:01;;;;;;;5.33;5.10;;;;;;;17.79;96.95;66060.59;5114482;28;20181;-73
2022/07/07 02:31:27;;;;;;;7.33;7.00;;;;;;;;;;5114190;28;20216;-72
2022/07/07 02:33:54;;;;;;;8.00;7.07;;;;;;;17.65;98.33;66044.97;5113294;28;20217;-73
2022/07/07 02:36:20;;;;;;;6.13;5.83;;;;;;;17.74;98.27;66055.03;5114116;28;20193;-73
2022/07/07 02:38:48;;;;;;;7.40;6.10;;;;;;;17.60;98.94;66042.00;5113266;28;20273;-72
2022/07/07 02:41:14;;;;;;;10.77;6.07;;;;;;;;;;5114030;28;20193;-73
2022/07/07 02:43:40;;;;;;;6.87;6.37;;;;;;;17.59;99.14;66040.91;5113464;28;20239;-73
2022/07/07 02:46:07;;;;;;;7.10;6.80;;;;;;;17.60;99.10;66039.94;5113959;28;20686;-73
2022/07/07 02:48:33;;;;;;;6.20;5.90;;;;;;;17.65;98.89;66052.84;5114281;28;20173;-73
2022/07/07 02:51:00;;;;;;;6.40;6.20;;;;;;;17.58;99.23;66037.16;5114218;28;20268;-73
2022/07/07 02:53:26;;;;;;;6.73;6.43;;;;;;;;;;5113171;28;20755;-73
2022/07/07 02:55:53;;;;;;;6.67;6.37;;;;;;;17.51;100.00;66029.34;5114707;28;20526;-73
2022/07/07 02:58:20;;;;;;;6.47;6.37;;;;;;;17.43;100.00;66015.16;5113797;28;20244;-73
2022/07/07 03:00:47;;;;;;;7.60;6.83;;;;;;;17.27;100.00;66006.31;5113807;28;20712;-73
2022/07/07 03:03:14;;;;;;;6.90;6.53;;;;;;;17.05;100.00;65981.78;5112929;28;20240;-72
2022/07/07 03:05:40;;;;;;;7.30;7.10;;;;;;;;;;5114149;28;20569;-72
2022/07/07 03:08:07;;;;;;;6.93;6.63;;;;;;;16.77;100.00;65954.31;5113709;28;20213;-72
2022/07/07 03:10:33;;;;;;;7.57;7.27;;;;;;;;;;5113254;28;20640;-72
2022/07/07 03:13:00;;;;;;;7.67;7.00;;;;;;;;;;5113632;28;20200;-72
2022/07/07 03:15:26;;;;;;;9.70;8.70;;;;;;;16.71;100.00;65945.00;5114226;28;20666;-72
2022/07/07 03:17:53;;;;;;;8.43;7.83;;;;;;;16.63;100.00;65936.06;5113842;28;20215;-72
2022/07/07 03:20:19;;;;;;;8.10;7.57;;;;;;;;;;5112095;28;20272;-72
2022/07/07 03:22:46;;;;;;;8.90;8.07;;;;;;;16.55;100.00;65937.09;5113521;28;20287;-72
2022/07/07 03:25:12;;;;;;;8.90;8.27;;;;;;;;;;5112844;28;20246;-73
2022/07/07 03:27:39;;;;;;;8.47;8.00;;;;;;;;;;5113516;28;20209;-73
2022/07/07 03:30:06;;;;;;;9.17;8.47;;;;;;;;;;5113495;28;20209;-73
2022/07/07 03:32:33;;;;;;;8.47;7.83;;;;;;;16.46;100.00;65914.50;5112662;28;20287;-72
2022/07/07 03:34:59;;;;;;;8.60;8.17;;;;;;;;;;5112752;28;20196;-73
2022/07/07 03:37:26;;;;;;;9.83;9.33;;;;;;;16.45;100.00;65916.03;5113426;28;20610;-72
2022/07/07 03:39:53;;;;;;;8.53;7.93;;;;;;;;;;5095288;28;20232;-72
2022/07/07 03:42:19;;;;;;;9.03;8.57;;;;;;;16.42;100.00;65904.81;5113362;28;20215;-72
2022/07/07 03:44:46;;;;;;;8.63;8.10;;;;;;;16.50;100.00;65922.16;5112663;28;20223;-72
2022/07/07 03:47:13;;;;;;;8.67;8.20;;;;;;;16.50;100.00;65914.28;5113590;28;20178;-72
2022/07/07 03:49:47;;;;;;;8.60;8.10;;;;;;;16.58;100.00;65933.13;5113916;28;20169;-72
2022/07/07 03:52:13;;;;;;;7.70;7.40;;;;;;;;;;5112446;28;20193;-72
2022/07/07 03:54:40;;;;;;;7.97;7.67;;;;;;;;;;5113551;28;20217;-72
2022/07/07 03:57:06;;;;;;;8.10;7.70;;;;;;;16.71;100.00;65945.00;5113254;28;20220;-72
2022/07/07 03:59:32;;;;;;;7.80;7.30;;;;;;;16.79;100.00;65950.75;5113126;28;20243;-72
2022/07/07 04:01:59;;;;;;;7.77;7.53;;;;;;;16.73;100.00;65946.69;5111956;28;20639;-72
2022/07/07 04:04:25;;;;;;;7.97;7.40;;;;;;;;;;5111357;28;20239;-72
2022/07/07 04:06:52;;;;;;;8.77;7.53;;;;;;;16.79;100.00;65950.75;5113483;28;20174;-72
2022/07/07 04:09:18;;;;;;;7.33;7.03;;;;;;;;;;5113392;28;20708;-72
2022/07/07 04:11:44;;;;;;;7.23;6.93;;;;;;;;;;5113372;28;20213;-72
2022/07/07 04:14:11;;;;;;;8.60;8.13;;;;;;;;;;5111456;28;20209;-72
2022/07/07 04:16:38;;;;;;;7.40;6.77;;;;;;;;;;5116105;28;20220;-72
2022/07/07 04:19:04;;;;;;;7.20;7.00;;;;;;;16.68;100.00;65939.03;5116656;28;20292;-72
2022/07/07 04:21:31;;;;;;;7.30;7.00;;;;;;;16.68;100.00;65939.03;5116049;28;20220;-72
2022/07/07 04:23:57;;;;;;;10.67;7.00;;;;;;;16.69;100.00;65942.78;5116624;28;20233;-72
2022/07/07 04:26:23;;;;;;;7.90;7.23;;;;;;;16.80;100.00;65954.50;5117171;28;20220;-73
2022/07/07 04:28:50;;;;;;;7.57;7.27;;;;;;;;;;5116496;28;20186;-74
2022/07/07 04:31:16;;;;;;;7.97;7.27;;;;;;;;;;5116070;28;20189;-73
2022/07/07 04:33:42;;;;;;;7.70;7.50;;;;;;;16.65;100.00;65937.75;5115612;28;20209;-73
2022/07/07 04:36:11;;;;;;;7.03;6.73;;;;;;;16.75;100.00;65946.28;5116476;28;20216;-74
2022/07/07 04:38:37;;;;;;;11.70;7.97;;;;;;;16.70;100.00;65940.72;5116594;28;20205;-73
2022/07/07 04:41:04;;;;;;;8.33;7.30;;;;;;;16.57;100.00;65929.38;5116349;28;20194;-74
2022/07/07 04:43:30;;;;;;;10.47;7.30;;;;;;;;;;5115475;28;20221;-73
2022/07/07 04:45:57;;;;;;;8.27;7.57;;;;;;;;;;5115702;28;20216;-73
2022/07/07 04:48:23;;;;;;;8.73;8.23;;;;;;;16.49;100.00;65917.84;5116266;28;20186;-74
2022/07/07 04:50:49;;;;;;;7.77;7.20;;;;;;;;;;5115845;28;20699;-73
2022/07/07 04:53:16;;;;;;;6.73;6.53;;;;;;;16.33;100.00;65905.81;5115955;28;20217;-73
2022/07/07 04:55:42;;;;;;;6.20;6.10;;;;;;;16.19;100.00;65884.97;5116454;28;20213;-74
2022/07/07 04:58:08;;;;;;;5.80;5.30;;;;;;;;;;5116086;28;20220;-74
2022/07/07 05:00:35;;;;;;;4.23;4.03;;;;;;;16.10;100.00;65878.13;5116196;28;20694;-74
2022/07/07 05:03:02;;;;;;;3.17;3.17;;;;;;;16.02;100.00;65871.28;5115020;28;20244;-73
2022/07/07 05:05:28;;;;;;;3.80;3.70;;;;;;;15.88;100.00;65858.88;5115757;28;20204;-74
2022/07/07 05:07:55;;;;;;;3.43;3.43;;;;;;;;;;5115829;28;20189;-72
2022/07/07 05:10:21;;;;;;;3.07;3.07;;;;;;;15.57;100.00;65820.22;5097760;28;20188;-75
2022/07/07 05:12:47;;;;;;;3.60;3.50;;;;;;;;;;5115613;28;20205;-75
2022/07/07 05:15:14;;;;;;;3.43;3.37;;;;;;;;;;5110698;28;20228;-75
2022/07/07 05:17:40;;;;;;;3.40;3.33;;;;;;;15.32;100.00;65789.75;5115026;28;20228;-74
2022/07/07 05:20:07;;;;;;;3.33;3.33;;;;;;;;;;5097232;28;20621;-74
2022/07/07 05:22:34;;;;;;;4.47;4.47;;;;;;;15.29;100.00;65778.59;5115674;28;20619;-74
2022/07/07 05:25:00;;;;;;;4.53;4.53;;;;;;;;;;5114954;28;20313;-74
2022/07/07 05:27:27;;;;;;;6.10;5.87;;;;;;;;;;5097376;28;20663;-74
2022/07/07 05:29:53;;;;;;;5.77;5.37;;;;;;;15.26;100.00;65786.25;5115966;28;20173;-75
2022/07/07 05:32:19;;;;;;;5.33;5.13;;;;;;;15.24;100.00;65784.03;5115864;28;20200;-75
2022/07/07 05:34:46;;;;;;;4.90;4.60;;;;;;;15.21;100.00;65783.28;5114485;28;20228;-75
2022/07/07 05:37:12;;;;;;;4.67;4.67;;;;;;;15.22;100.00;65781.25;5115511;28;20678;-74
2022/07/07 05:39:39;;;;;;;5.03;4.83;;;;;;;15.26;100.00;65778.41;5115259;28;20197;-74
2022/07/07 05:42:05;;;;;;;4.37;4.37;;;;;;;15.30;100.00;65790.72;5115278;28;20681;-73
2022/07/07 05:44:31;;;;;;;4.57;4.50;;;;;;;;;;5114779;28;20229;-74
2022/07/07 05:46:58;;;;;;;4.80;4.77;;;;;;;15.37;100.00;65790.09;5115276;28;20525;-75
2022/07/07 05:49:24;;;;;;;4.97;4.97;;;;;;;15.38;100.00;65797.00;5114891;28;20185;-74
2022/07/07 05:51:51;;;;;;;4.83;4.73;;;;;;;;;;5114203;28;20634;-74
2022/07/07 05:54:17;;;;;;;4.87;4.67;;;;;;;15.42;100.00;65808.72;5114807;28;20244;-75
2022/07/07 05:56:44;;;;;;;5.83;5.53;;;;;;;15.52;100.00;65814.09;5114832;28;20670;-74
2022/07/07 05:59:10;;;;;;;5.83;5.67;;;;;;;;;;5114787;28;20205;-75
2022/07/07 06:01:37;;;;;;;5.30;5.30;;;;;;;15.53;100.00;65815.19;5114016;28;20231;-75
2022/07/07 06:04:03;;;;;;;5.47;5.37;;;;;;;15.54;100.00;65816.88;5113824;28;20709;-75
2022/07/07 06:06:30;;;;;;;5.97;5.87;;;;;;;;;;5114733;28;20220;-75
2022/07/07 06:08:56;;;;;;;9.00;5.97;;;;;;;15.69;100.00;65830.97;5114624;28;20655;-75
2022/07/07 06:11:23;;;;;;;5.23;5.10;;;;;;;15.75;100.00;65831.31;5114576;28;20221;-75
2022/07/07 06:13:50;;;;;;;5.53;5.50;;;;;;;;;;5112986;28;20220;-75
2022/07/07 06:16:16;;;;;;;5.47;5.37;;;;;;;;;;5114488;28;20272;-76
2022/07/07 06:18:43;;;;;;;5.80;5.33;;;;;;;15.72;100.00;65839.00;5114342;28;20268;-76
2022/07/07 06:21:09;;;;;;;5.00;4.90;;;;;;;15.73;100.00;65836.94;5114380;28;20216;-76
2022/07/07 06:23:36;;;;;;;5.00;4.70;;;;;;;15.72;100.00;65835.81;5114284;28;20237;-76
2022/07/07 06:26:02;;;;;;;5.23;5.20;;;;;;;15.76;100.00;65838.22;5113505;28;20185;-75
2022/07/07 06:28:29;;;;;;;5.20;5.00;;;;;;;15.74;100.00;65843.28;5113548;28;20185;-74
2022/07/07 06:30:55;;;;;;;5.23;5.13;;;;;;;15.78;100.00;65834.63;5114240;28;20231;-75
2022/07/07 06:33:22;;;;;;;5.17;5.17;;;;;;;15.88;100.00;65851.56;5114148;28;20205;-75
2022/07/07 06:35:49;;;;;;;6.20;5.83;;;;;;;15.85;100.00;65850.84;5113471;28;20185;-75
2022/07/07 06:38:15;;;;;;;5.50;5.20;;;;;;;;;;5095648;28;20667;-75
2022/07/07 06:40:42;;;;;;;2.27;2.20;;;;;;;;;;5113989;28;20716;-75
2022/07/07 06:43:15;;;;;;;3.53;3.43;;;;;;;15.55;100.00;65815.38;5114007;28;20205;-75
2022/07/07 06:45:42;;;;;;;4.00;3.80;;;;;;;15.56;100.00;65816.47;5113194;28;20658;-75
2022/07/07 06:48:08;;;;;;;3.67;3.47;;;;;;;15.53;100.00;65815.75;5114173;28;20184;-74
2022/07/07 06:50:35;;;;;;;3.80;3.80;;;;;;;15.56;100.00;65819.09;5112880;28;20236;-75
2022/07/07 06:53:01;;;;;;;3.53;3.53;;;;;;;15.58;100.00;65821.34;5114267;28;20239;-75
2022/07/07 06:55:27;;;;;;;3.30;3.13;;;;;;;;;;5114390;28;20235;-74
2022/07/07 06:57:54;;;;;;;2.60;2.60;;;;;;;;;;5113004;28;20213;-75
2022/07/07 07:00:20;;;;;;;3.70;3.60;;;;;;;15.68;100.00;65832.47;5114044;28;20248;-74
2022/07/07 07:02:48;;;;;;;4.07;3.90;;;;;;;15.65;100.00;65826.53;5113697;28;20751;-74
2022/07/07 07:05:15;;;;;;;2.50;2.50;;;;;;;;;;5113731;28;20728;-74
2022/07/07 07:07:42;;;;;;;2.50;2.40;;;;;;;15.64;100.00;65830.06;5113720;28;20395;-74
2022/07/07 07:10:08;;;;;;;2.53;2.03;;;;;;;;;;5113491;28;20197;-74
2022/07/07 07:12:35;;;;;;;5.93;2.10;;;;;;;;;;5113658;28;20205;-74
2022/07/07 07:15:01;;;;;;;3.23;2.20;;;;;;;15.37;100.00;65795.88;5112000;28;20209;-74
2022/07/07 07:17:27;;;;;;;1.57;1.57;;;;;;;;;;5111093;28;20555;-74
2022/07/07 07:19:54;;;;;;;1.77;1.77;;;;;;;15.28;100.00;65788.47;5113541;28;20209;-75
2022/07/07 07:22:20;;;;;;;2.03;2.03;;;;;;;15.24;100.00;65783.47;5113790;28;20216;-74
2022/07/07 07:24:47;;;;;;;2.00;2.00;;;;;;;;;;5113835;28;20221;-74
2022/07/07 07:27:13;;;;;;;2.30;2.30;;;;;;;15.40;100.00;65801.28;5112652;28;20193;-74
2022/07/07 07:29:40;;;;;;;2.10;2.10;;;;;;;15.44;100.00;65805.19;5113792;28;20181;-74
2022/07/07 07:32:06;;;;;;;2.27;2.27;;;;;;;;;;5113449;28;20588;-75
2022/07/07 07:34:33;;;;;;;4.03;2.53;;;;;;;;;;5112719;28;20598;-74
2022/07/07 07:37:00;;;;;;;3.20;2.90;;;;;;;15.64;100.00;65832.69;5113465;28;20213;-75
2022/07/07 07:39:26;;;;;;;2.37;2.27;;;;;;;15.78;100.00;65842.50;5111944;28;20295;-73
2022/07/07 07:41:53;;;;;;;2.63;2.50;;;;;;;;;;5112960;28;20276;-74
2022/07/07 07:47:04;;;;;;;5.67;2.43;;;;;;;;;;5093059;28;20201;-75
2022/07/07 07:49:31;;;;;;;2.67;2.20;;;;;;;;;;5097931;28;20526;-74
2022/07/07 07:51:57;;;;;;;5.77;2.83;;;;;;;16.11;100.00;65871.41;5115893;28;20220;-75
2022/07/07 07:54:31;;;;;;;2.83;2.60;;;;;;;16.08;100.00;65873.31;5117566;28;20207;-74
2022/07/07 07:56:57;;;;;;;4.03;1.87;;;;;;;;;;5114997;28;20224;-74
2022/07/07 07:59:24;;;;;;;3.40;2.23;;;;;;;15.99;100.00;65854.84;5115608;28;20690;-74
2022/07/07 08:01:51;;;;;;;4.57;2.03;;;;;;;15.93;100.00;65859.78;5117051;28;20193;-74
2022/07/07 08:04:17;;;;;;;2.93;1.97;;;;;;;15.65;100.00;65828.59;5116896;28;20251;-74
2022/07/07 08:06:44;;;;;;;2.73;1.80;;;;;;;15.39;100.00;65792.88;5117546;28;20177;-74
2022/07/07 08:09:10;;;;;;;3.27;1.53;;;;;;;15.13;100.00;65772.34;5115388;28;20617;-73
2022/07/07 08:11:37;;;;;;;1.50;1.50;;;;;;;15.03;100.00;65758.59;5116193;28;20224;-74
2022/07/07 08:14:03;;;;;;;1.17;1.17;;;;;;;15.14;100.00;65770.28;5115899;28;20221;-75
2022/07/07 08:16:29;;;;;;;2.37;1.60;;;;;;;15.13;100.00;65774.94;5115971;28;20189;-75
2022/07/07 08:18:56;;;;;;;1.57;1.57;;;;;;;15.29;100.00;65789.59;5117345;28;20268;-73
2022/07/07 08:21:23;;;;;;;2.77;2.00;;;;;;;15.46;100.00;65796.94;5115777;28;20223;-74
2022/07/07 08:23:49;;;;;;;1.57;1.57;;;;;;;15.53;100.00;65817.81;5116640;28;20229;-74
2022/07/07 08:26:16;;;;;;;3.80;1.73;;;;;;;15.56;100.00;65819.09;5115767;28;20268;-73
2022/07/07 08:28:42;;;;;;;1.80;1.70;;;;;;;15.74;100.00;65838.06;5115213;28;20197;-74
2022/07/07 08:31:09;;;;;;;4.17;1.70;;;;;;;;;;5117134;28;20209;-73
2022/07/07 08:33:35;;;;;;;2.03;2.03;;;;;;;;;;5117189;28;20555;-74
2022/07/07 08:36:01;;;;;;;2.03;1.93;;;;;;;;;;5106333;28;20229;-73
2022/07/07 08:38:28;;;;;;;2.60;2.20;;;;;;;15.97;100.00;65863.66;5096065;28;20690;-73
2022/07/07 08:40:54;;;;;;;4.00;1.90;;;;;;;15.91;100.00;65856.97;5095911;28;20209;-74
2022/07/07 08:43:20;;;;;;;1.53;1.50;;;;;;;;;;5095895;28;20234;-74
2022/07/07 08:45:48;;;;;;;1.83;1.73;;;;;;;;;;5110705;28;20221;-74
2022/07/07 08:48:14;;;;;;;4.70;2.03;;;;;;;;;;5116475;28;20185;-73
2022/07/07 08:50:40;;;;;;;3.67;1.87;;;;;;;15.77;100.00;65838.75;5116160;28;20185;-73
2022/07/07 08:53:08;;;;;;;1.60;1.60;;;;;;;15.78;100.00;65845.09;5115343;28;20742;-74
2022/07/07 08:55:35;;;;;;;1.37;1.37;;;;;;;15.95;100.00;65858.81;5115385;28;20258;-73
2022/07/07 08:58:02;;;;;;;2.20;1.77;;;;;;;16.05;100.00;65869.94;5115218;28;20197;-73
2022/07/07 09:00:28;;;;;;;1.20;1.20;;;;;;;16.13;100.00;65878.31;5115092;28;20247;-74
2022/07/07 09:02:58;;;;;;;1.90;1.63;;;;;;;16.28;100.00;65889.22;5113460;28;20212;-73
2022/07/07 09:05:25;;;;;;;1.60;1.60;;;;;;;16.47;100.00;65918.25;5115905;28;20242;-74
2022/07/07 09:07:53;;;;;;;1.30;1.30;;;;;;;16.64;100.00;65934.00;5116209;28;20184;-74
2022/07/07 09:10:32;;;;;;;1.50;1.50;;;;;;;;;;5115055;28;20231;-74
2022/07/07 09:13:00;;;;;;;1.57;1.57;;;;;;;16.61;100.00;65938.53;5113484;28;20213;-74
2022/07/07 09:15:26;;;;;;;1.17;1.17;;;;;;;;;;5114974;28;20193;-73
2022/07/07 09:17:53;;;;;;;1.43;1.43;;;;;;;;;;5114407;28;20227;-75
2022/07/07 09:20:21;;;;;;;1.43;1.40;;;;;;;16.69;100.00;65940.16;5115192;28;20211;-73
2022/07/07 09:22:57;;;;;;;1.40;1.40;;;;;;;;;;5115500;28;20244;-73
2022/07/07 09:25:29;;;;;;;1.30;1.30;;;;;;;16.47;100.00;65918.25;5114602;28;20678;-73
2022/07/07 09:28:03;;;;;;;1.33;1.23;;;;;;;;;;5115758;28;20201;-74
2022/07/07 09:30:31;;;;;;;1.83;1.83;;;;;;;16.30;100.00;65899.31;5115990;28;20177;-74
2022/07/07 09:33:01;;;;;;;1.63;1.63;;;;;;;16.31;100.00;65900.41;5115260;28;20236;-74
2022/07/07 09:38:13;;;;;;;1.20;1.20;;;;;;;;;;5114362;28;20715;-74
2022/07/07 09:40:50;;;;;;;1.33;1.33;;;;;;;;;;5115676;28;20201;-73
2022/07/07 09:43:17;;;;;;;1.30;1.30;;;;;;;17.13;100.00;65990.72;5115127;28;20201;-74
2022/07/07 09:46:03;;;;;;;2.00;1.20;;;;;;;;;;5114252;28;20232;-74
2022/07/07 09:48:29;;;;;;;1.90;1.10;;;;;;;17.14;100.00;65983.94;5111168;28;20647;-74
2022/07/07 09:51:14;;;;;;;1.97;1.83;;;;;;;;;;5114002;28;20227;-76
2022/07/07 09:54:14;;;;;;;1.10;1.10;;;;;;;16.89;100.00;65964.50;5114984;28;20296;-73
2022/07/07 09:56:44;;;;;;;1.43;1.43;;;;;;;16.71;100.00;65945.00;5096284;28;20197;-73
2022/07/07 09:59:16;;;;;;;1.20;1.20;;;;;;;16.56;100.00;65925.09;5114181;28;20204;-74
2022/07/07 10:01:45;;;;;;;1.30;1.30;;;;;;;16.41;100.00;65911.56;5115555;28;20192;-74
2022/07/07 10:04:13;;;;;;;2.50;1.77;;;;;;;;;;5113589;28;20283;-73
2022/07/07 10:06:41;;;;;;;1.50;1.50;;;;;;;;;;5114594;28;20189;-74
2022/07/07 10:09:10;;;;;;;1.57;1.47;;;;;;;16.26;100.00;65894.84;5113015;28;20217;-73
2022/07/07 10:11:44;;;;;;;1.93;1.77;;;;;;;16.34;100.00;65903.75;5115364;28;20209;-74
2022/07/07 10:14:12;;;;;;;4.13;1.50;;;;;;;16.45;100.00;65905.53;5114377;28;20705;-73
2022/07/07 10:16:39;;;;;;;1.87;1.87;;;;;;;;;;5115049;28;20246;-74
2022/07/07 10:19:08;;;;;;;1.20;1.20;;;;;;;;;;5113752;28;20189;-74
2022/07/07 10:21:34;;;;;;;1.00;1.00;;;;;;;;;;5114869;28;20304;-74
2022/07/07 10:24:05;;;;;;;1.20;1.20;;;;;;;16.04;100.00;65870.91;5114351;28;20213;-73
2022/07/07 10:26:36;;;;;;;1.37;1.33;;;;;;;;;;5114356;28;20185;-74
2022/07/07 10:29:07;;;;;;;1.10;1.10;;;;;;;16.03;100.00;65867.16;5113040;28;20193;-74
2022/07/07 10:31:33;;;;;;;1.47;1.47;;;;;;;;;;5114283;28;20178;-73
2022/07/07 10:34:07;;;;;;;1.30;1.30;;;;;;;16.13;100.00;65873.63;5114689;28;20566;-74
2022/07/07 10:36:45;;;;;;;1.30;1.20;;;;;;;16.37;100.00;65910.28;5114775;28;20181;-73
2022/07/07 10:39:22;;;;;;;1.00;1.00;;;;;;;16.50;100.00;65919.53;5113469;28;20219;-74
2022/07/07 10:42:07;;;;;;;1.33;1.33;;;;;;;16.64;100.00;65934.56;5113596;28;20233;-74
2022/07/07 10:44:35;;;;;;;1.03;1.03;;;;;;;;;;5114019;28;20193;-73
2022/07/07 10:47:24;;;;;;;1.17;1.17;;;;;;;16.77;100.00;65948.50;5114376;28;20574;-74
2022/07/07 10:49:53;;;;;;;5.63;1.10;;;;;;;16.81;100.00;65955.03;5113892;28;20189;-74
2022/07/07 10:52:22;;;;;;;3.03;1.20;;;;;;;16.88;100.00;65960.22;5112966;28;20589;-74
2022/07/07 10:54:55;;;;;;;1.10;1.10;;;;;;;16.80;100.00;65953.94;5114201;28;20208;-74
2022/07/07 10:57:38;;;;;;;1.30;1.30;;;;;;;16.85;100.00;65956.88;5114199;28;20169;-74
2022/07/07 11:00:09;;;;;;;2.57;1.70;;;;;;;16.94;100.00;65969.53;5112896;28;20616;-74
2022/07/07 11:03:07;;;;;;;1.67;1.57;;;;;;;16.92;100.00;65956.81;5113244;28;20209;-74
2022/07/07 11:05:35;;;;;;;1.20;1.20;;;;;;;17.10;100.00;65986.81;5102523;28;20233;-74
2022/07/07 11:08:09;;;;;;;1.00;1.00;;;;;;;;;;5095282;28;20587;-74
2022/07/07 11:10:47;;;;;;;1.70;1.60;;;;;;;17.30;100.00;66009.66;5108996;28;20216;-72
2022/07/07 11:13:22;;;;;;;1.30;1.30;;;;;;;;;;5109869;28;20706;-74
2022/07/07 11:16:08;;;;;;;1.30;1.30;;;;;;;17.50;100.00;66030.84;5111040;28;20249;-73
2022/07/07 11:18:35;;;;;;;1.90;1.70;;;;;;;;;;5112937;28;20271;-73
2022/07/07 11:21:03;;;;;;;1.37;1.37;;;;;;;;;;5112333;28;20240;-74
2022/07/07 11:23:49;;;;;;;1.30;1.30;;;;;;;;;;5114176;28;20780;-74
2022/07/07 11:26:23;;;;;;;1.80;1.80;;;;;;;17.59;100.00;66041.44;5108231;28;21624;-73
2022/07/07 11:28:51;;;;;;;1.53;1.53;;;;;;;17.61;100.00;66048.94;5112746;28;20177;-73
2022/07/07 11:31:18;;;;;;;2.20;1.60;;;;;;;17.48;100.00;66028.63;5117191;28;20606;-74
2022/07/07 11:33:52;;;;;;;1.60;1.50;;;;;;;;;;5117706;28;20705;-74
2022/07/07 11:36:23;;;;;;;1.10;1.10;;;;;;;;;;5116716;28;20212;-75
2022/07/07 11:38:56;;;;;;;1.07;1.07;;;;;;;17.38;100.00;66017.47;5117882;28;20620;-74
2022/07/07 11:41:36;;;;;;;1.47;1.47;;;;;;;;;;5117474;28;20225;-74
2022/07/07 11:44:02;;;;;;;1.50;1.50;;;;;;;17.67;100.00;66052.44;5118354;28;20697;-74
2022/07/07 11:46:29;;;;;;;1.27;1.27;;;;;;;17.63;100.00;66042.72;5115968;28;20213;-73
2022/07/07 11:48:55;;;;;;;1.20;1.20;;;;;;;17.52;100.00;66033.66;5116680;28;20196;-73
2022/07/07 11:51:29;;;;;;;1.63;1.53;;;;;;;;;;5115291;28;20213;-74
2022/07/07 11:53:57;;;;;;;1.87;1.80;;;;;;;;;;5115936;28;20207;-73
2022/07/07 11:56:31;;;;;;;1.00;1.00;;;;;;;17.17;100.00;65992.56;5116515;28;20200;-74
2022/07/07 11:58:59;;;;;;;1.30;1.30;;;;;;;17.25;100.00;65996.22;5116837;28;20231;-74
2022/07/07 12:01:50;;;;;;;7.23;1.27;;;;;;;17.49;100.00;66029.72;5117725;28;20663;-74
2022/07/07 12:04:20;;;;;;;1.30;1.30;;;;;;;17.61;100.00;66040.50;5117383;28;20540;-74
2022/07/07 12:06:48;;;;;;;1.77;1.70;;;;;;;17.73;100.00;66053.34;5116324;28;20195;-73
2022/07/07 12:09:16;;;;;;;1.67;1.67;;;;;;;;;;5115732;28;20633;-73
2022/07/07 12:11:43;;;;;;;1.30;1.30;;;;;;;17.94;100.00;66070.97;5113506;28;20185;-74
2022/07/07 12:14:12;;;;;;;5.43;1.50;;;;;;;17.92;100.00;66074.53;5115204;28;20260;-74
2022/07/07 12:16:46;;;;;;;1.40;1.40;;;;;;;17.88;100.00;66070.63;5116867;28;20185;-74
2022/07/07 12:19:13;;;;;;;1.20;1.20;;;;;;;;;;5116899;28;20201;-74
2022/07/07 12:21:49;;;;;;;1.23;1.17;;;;;;;;;;5115804;28;20207;-75
2022/07/07 12:24:17;;;;;;;1.60;0.90;;;;;;;17.91;99.21;66075.50;5116615;28;20208;-73
2022/07/07 12:26:48;;;;;;;1.30;0.80;;;;;;;;;;5116935;28;20182;-72
2022/07/07 12:29:21;;;;;;;1.23;1.23;;;;;;;;;;5116928;28;20189;-74
2022/07/07 12:31:49;;;;;;;1.57;1.50;;;;;;;18.00;98.76;66078.22;5115964;28;20478;-74
2022/07/07 12:34:19;;;;;;;2.87;1.20;;;;;;;17.90;99.20;66067.06;5096937;28;20294;-74
2022/07/07 12:36:47;;;;;;;4.87;1.20;;;;;;;17.85;100.00;66071.97;5115988;28;20238;-74